sensor_id;sensor_type;location;lat;lon;timestamp;temperature;humidity
21592;DHT22;10958;50.892;3.992;2024-01-10T00:01:26;-4.10;99.90
21592;DHT22;10958;50.892;3.992;2024-01-10T00:03:55;-4.00;99.90
21592;DHT22;10958;50.892;3.992;2024-01-10T00:06:21;-4.10;99.90
21592;DHT22;10958;50.892;3.992;2024-01-10T00:08:49;-3.90;99.90
21592;DHT22;10958;50.892;3.992;2024-01-10T00:11:15;-3.70;99.90
21592;DHT22;10958;50.892;3.992;2024-01-10T00:13:43;-3.60;99.90
21592;DHT22;10958;50.892;3.992;2024-01-10T00:16:12;-3.70;99.90
21592;DHT22;10958;50.892;3.992;2024-01-10T00:18:41;-3.60;99.90
21592;DHT22;10958;50.892;3.992;2024-01-10T00:21:07;-3.80;99.90
21592;DHT22;10958;50.892;3.992;2024-01-10T00:23:35;-3.80;99.90
21592;DHT22;10958;50.892;3.992;2024-01-10T00:26:03;-3.90;99.90
21592;DHT22;10958;50.892;3.992;2024-01-10T00:28:31;-4.20;99.90
21592;DHT22;10958;50.892;3.992;2024-01-10T00:30:57;-4.10;99.90
21592;DHT22;10958;50.892;3.992;2024-01-10T00:33:22;-4.20;99.90
21592;DHT22;10958;50.892;3.992;2024-01-10T00:35:48;-4.00;99.90
21592;DHT22;10958;50.892;3.992;2024-01-10T00:38:14;-3.90;99.90
21592;DHT22;10958;50.892;3.992;2024-01-10T00:40:39;-3.90;99.90
21592;DHT22;10958;50.892;3.992;2024-01-10T00:43:05;-3.90;99.90
21592;DHT22;10958;50.892;3.992;2024-01-10T00:45:30;-4.00;99.90
21592;DHT22;10958;50.892;3.992;2024-01-10T00:47:56;-4.10;99.90
21592;DHT22;10958;50.892;3.992;2024-01-10T00:50:22;-4.00;99.90
21592;DHT22;10958;50.892;3.992;2024-01-10T00:52:47;-4.00;99.90
21592;DHT22;10958;50.892;3.992;2024-01-10T00:55:15;-4.10;99.90
21592;DHT22;10958;50.892;3.992;2024-01-10T00:57:43;-4.20;99.90
21592;DHT22;10958;50.892;3.992;2024-01-10T01:00:09;-4.40;99.90
21592;DHT22;10958;50.892;3.992;2024-01-10T01:02:38;-4.30;99.90
21592;DHT22;10958;50.892;3.992;2024-01-10T01:05:05;-4.30;99.90
21592;DHT22;10958;50.892;3.992;2024-01-10T01:07:34;-4.20;99.90
21592;DHT22;10958;50.892;3.992;2024-01-10T01:09:59;-4.20;99.90
21592;DHT22;10958;50.892;3.992;2024-01-10T01:12:25;-4.10;99.90
21592;DHT22;10958;50.892;3.992;2024-01-10T01:14:54;-4.10;99.90
21592;DHT22;10958;50.892;3.992;2024-01-10T01:17:20;-4.10;99.90
21592;DHT22;10958;50.892;3.992;2024-01-10T01:19:45;-4.20;99.90
21592;DHT22;10958;50.892;3.992;2024-01-10T01:22:11;-4.30;99.90
21592;DHT22;10958;50.892;3.992;2024-01-10T01:24:36;-4.10;99.90
21592;DHT22;10958;50.892;3.992;2024-01-10T01:27:03;-4.10;99.90
21592;DHT22;10958;50.892;3.992;2024-01-10T01:29:31;-4.10;99.90
21592;DHT22;10958;50.892;3.992;2024-01-10T01:31:57;-4.20;99.90
21592;DHT22;10958;50.892;3.992;2024-01-10T01:34:23;-4.30;99.90
21592;DHT22;10958;50.892;3.992;2024-01-10T01:36:48;-4.30;99.90
21592;DHT22;10958;50.892;3.992;2024-01-10T01:39:16;-4.20;99.90
21592;DHT22;10958;50.892;3.992;2024-01-10T01:41:42;-4.20;99.90
21592;DHT22;10958;50.892;3.992;2024-01-10T01:44:07;-4.50;99.90
21592;DHT22;10958;50.892;3.992;2024-01-10T01:46:36;-4.40;99.90
21592;DHT22;10958;50.892;3.992;2024-01-10T01:49:03;-4.60;99.90
21592;DHT22;10958;50.892;3.992;2024-01-10T01:51:35;-4.70;99.90
21592;DHT22;10958;50.892;3.992;2024-01-10T01:54:06;-4.60;99.90
21592;DHT22;10958;50.892;3.992;2024-01-10T01:56:34;-4.60;99.90
21592;DHT22;10958;50.892;3.992;2024-01-10T01:59:02;-4.40;99.90
21592;DHT22;10958;50.892;3.992;2024-01-10T02:01:28;-4.30;99.90
21592;DHT22;10958;50.892;3.992;2024-01-10T02:03:55;-4.30;99.90
21592;DHT22;10958;50.892;3.992;2024-01-10T02:06:21;-4.10;99.90
21592;DHT22;10958;50.892;3.992;2024-01-10T02:08:46;-3.90;99.90
21592;DHT22;10958;50.892;3.992;2024-01-10T02:11:12;-3.70;99.90
21592;DHT22;10958;50.892;3.992;2024-01-10T02:13:38;-3.70;99.90
21592;DHT22;10958;50.892;3.992;2024-01-10T02:16:04;-3.80;99.90
21592;DHT22;10958;50.892;3.992;2024-01-10T02:18:30;-4.30;99.90
21592;DHT22;10958;50.892;3.992;2024-01-10T02:20:56;-4.50;99.90
21592;DHT22;10958;50.892;3.992;2024-01-10T02:23:23;-4.50;99.90
21592;DHT22;10958;50.892;3.992;2024-01-10T02:25:49;-4.40;99.90
21592;DHT22;10958;50.892;3.992;2024-01-10T02:28:17;-4.40;99.90
21592;DHT22;10958;50.892;3.992;2024-01-10T02:30:43;-4.20;99.90
21592;DHT22;10958;50.892;3.992;2024-01-10T02:33:09;-4.10;99.90
21592;DHT22;10958;50.892;3.992;2024-01-10T02:35:34;-4.10;99.90
21592;DHT22;10958;50.892;3.992;2024-01-10T02:38:01;-4.10;99.90
21592;DHT22;10958;50.892;3.992;2024-01-10T02:40:27;-3.90;99.90
21592;DHT22;10958;50.892;3.992;2024-01-10T02:42:55;-3.90;99.90
21592;DHT22;10958;50.892;3.992;2024-01-10T02:45:21;-4.00;99.90
21592;DHT22;10958;50.892;3.992;2024-01-10T02:47:46;-3.90;99.90
21592;DHT22;10958;50.892;3.992;2024-01-10T02:50:12;-4.10;99.90
21592;DHT22;10958;50.892;3.992;2024-01-10T02:52:38;-4.20;99.90
21592;DHT22;10958;50.892;3.992;2024-01-10T02:55:03;-4.20;99.90
21592;DHT22;10958;50.892;3.992;2024-01-10T02:57:29;-4.40;99.90
21592;DHT22;10958;50.892;3.992;2024-01-10T02:59:57;-4.30;99.90
21592;DHT22;10958;50.892;3.992;2024-01-10T03:02:23;-4.20;99.90
21592;DHT22;10958;50.892;3.992;2024-01-10T03:04:51;-4.30;99.90
21592;DHT22;10958;50.892;3.992;2024-01-10T03:07:19;-4.30;99.90
21592;DHT22;10958;50.892;3.992;2024-01-10T03:09:45;-4.40;99.90
21592;DHT22;10958;50.892;3.992;2024-01-10T03:12:11;-4.30;99.90
21592;DHT22;10958;50.892;3.992;2024-01-10T03:14:37;-4.20;99.90
21592;DHT22;10958;50.892;3.992;2024-01-10T03:17:03;-4.30;99.90
21592;DHT22;10958;50.892;3.992;2024-01-10T03:19:28;-4.50;99.90
21592;DHT22;10958;50.892;3.992;2024-01-10T03:21:54;-4.50;99.90
21592;DHT22;10958;50.892;3.992;2024-01-10T03:24:20;-4.40;99.90
21592;DHT22;10958;50.892;3.992;2024-01-10T03:26:48;-4.50;99.90
21592;DHT22;10958;50.892;3.992;2024-01-10T03:29:16;-4.50;99.90
21592;DHT22;10958;50.892;3.992;2024-01-10T03:31:41;-4.60;99.90
21592;DHT22;10958;50.892;3.992;2024-01-10T03:34:09;-4.80;99.90
21592;DHT22;10958;50.892;3.992;2024-01-10T03:36:37;-4.90;99.90
21592;DHT22;10958;50.892;3.992;2024-01-10T03:39:05;-4.90;99.90
21592;DHT22;10958;50.892;3.992;2024-01-10T03:41:34;-5.00;99.90
21592;DHT22;10958;50.892;3.992;2024-01-10T03:44:00;-4.80;99.90
21592;DHT22;10958;50.892;3.992;2024-01-10T03:46:27;-4.80;99.90
21592;DHT22;10958;50.892;3.992;2024-01-10T03:48:56;-4.90;99.90
21592;DHT22;10958;50.892;3.992;2024-01-10T03:51:21;-5.00;99.90
21592;DHT22;10958;50.892;3.992;2024-01-10T03:53:47;-5.10;99.90
21592;DHT22;10958;50.892;3.992;2024-01-10T03:56:14;-5.00;99.90
21592;DHT22;10958;50.892;3.992;2024-01-10T03:58:40;-4.90;99.90
21592;DHT22;10958;50.892;3.992;2024-01-10T04:01:07;-5.10;99.90
21592;DHT22;10958;50.892;3.992;2024-01-10T04:03:33;-5.10;99.90
21592;DHT22;10958;50.892;3.992;2024-01-10T04:06:00;-5.10;99.90
21592;DHT22;10958;50.892;3.992;2024-01-10T04:08:28;-5.20;99.90
21592;DHT22;10958;50.892;3.992;2024-01-10T04:10:54;-5.10;99.90
21592;DHT22;10958;50.892;3.992;2024-01-10T04:13:20;-5.10;99.90
21592;DHT22;10958;50.892;3.992;2024-01-10T04:15:46;-5.20;99.90
21592;DHT22;10958;50.892;3.992;2024-01-10T04:18:12;-5.40;99.90
21592;DHT22;10958;50.892;3.992;2024-01-10T04:20:37;-5.50;99.90
21592;DHT22;10958;50.892;3.992;2024-01-10T04:23:03;-5.30;99.90
21592;DHT22;10958;50.892;3.992;2024-01-10T04:25:28;-5.00;99.90
21592;DHT22;10958;50.892;3.992;2024-01-10T04:27:54;-5.00;99.90
21592;DHT22;10958;50.892;3.992;2024-01-10T04:30:21;-5.00;99.90
21592;DHT22;10958;50.892;3.992;2024-01-10T04:32:46;-4.80;99.90
21592;DHT22;10958;50.892;3.992;2024-01-10T04:35:12;-5.10;99.90
21592;DHT22;10958;50.892;3.992;2024-01-10T04:37:37;-5.10;99.90
21592;DHT22;10958;50.892;3.992;2024-01-10T04:40:04;-4.90;99.90
21592;DHT22;10958;50.892;3.992;2024-01-10T04:42:30;-5.00;99.90
21592;DHT22;10958;50.892;3.992;2024-01-10T04:44:56;-4.80;99.90
21592;DHT22;10958;50.892;3.992;2024-01-10T04:47:22;-4.80;99.90
21592;DHT22;10958;50.892;3.992;2024-01-10T04:49:47;-4.80;99.90
21592;DHT22;10958;50.892;3.992;2024-01-10T04:52:15;-5.00;99.90
21592;DHT22;10958;50.892;3.992;2024-01-10T04:54:41;-5.10;99.90
21592;DHT22;10958;50.892;3.992;2024-01-10T04:57:09;-5.30;99.90
21592;DHT22;10958;50.892;3.992;2024-01-10T04:59:35;-5.30;99.90
21592;DHT22;10958;50.892;3.992;2024-01-10T05:02:01;-5.20;99.90
21592;DHT22;10958;50.892;3.992;2024-01-10T05:04:31;-5.30;99.90
21592;DHT22;10958;50.892;3.992;2024-01-10T05:06:59;-5.30;99.90
21592;DHT22;10958;50.892;3.992;2024-01-10T05:09:25;-5.30;99.90
21592;DHT22;10958;50.892;3.992;2024-01-10T05:11:51;-5.30;99.90
21592;DHT22;10958;50.892;3.992;2024-01-10T05:14:18;-5.30;99.90
21592;DHT22;10958;50.892;3.992;2024-01-10T05:16:47;-5.20;99.90
21592;DHT22;10958;50.892;3.992;2024-01-10T05:19:15;-5.20;99.90
21592;DHT22;10958;50.892;3.992;2024-01-10T05:21:41;-5.30;99.90
21592;DHT22;10958;50.892;3.992;2024-01-10T05:24:07;-5.30;99.90
21592;DHT22;10958;50.892;3.992;2024-01-10T05:26:32;-5.30;99.90
21592;DHT22;10958;50.892;3.992;2024-01-10T05:28:58;-5.30;99.90
21592;DHT22;10958;50.892;3.992;2024-01-10T05:31:23;-5.20;99.90
21592;DHT22;10958;50.892;3.992;2024-01-10T05:33:49;-5.30;99.90
21592;DHT22;10958;50.892;3.992;2024-01-10T05:36:17;-5.30;99.90
21592;DHT22;10958;50.892;3.992;2024-01-10T05:38:43;-5.20;99.90
21592;DHT22;10958;50.892;3.992;2024-01-10T05:41:09;-5.10;99.90
21592;DHT22;10958;50.892;3.992;2024-01-10T05:43:34;-5.30;99.90
21592;DHT22;10958;50.892;3.992;2024-01-10T05:46:00;-5.40;99.90
21592;DHT22;10958;50.892;3.992;2024-01-10T05:48:26;-5.30;99.90
21592;DHT22;10958;50.892;3.992;2024-01-10T05:50:52;-5.20;99.90
21592;DHT22;10958;50.892;3.992;2024-01-10T05:53:20;-5.30;99.90
21592;DHT22;10958;50.892;3.992;2024-01-10T05:55:45;-5.10;99.90
21592;DHT22;10958;50.892;3.992;2024-01-10T05:58:11;-5.40;99.90
21592;DHT22;10958;50.892;3.992;2024-01-10T06:00:37;-5.40;99.90
21592;DHT22;10958;50.892;3.992;2024-01-10T06:03:03;-5.20;99.90
21592;DHT22;10958;50.892;3.992;2024-01-10T06:05:29;-5.10;99.90
21592;DHT22;10958;50.892;3.992;2024-01-10T06:08:01;-5.30;99.90
21592;DHT22;10958;50.892;3.992;2024-01-10T06:10:29;-5.40;99.90
21592;DHT22;10958;50.892;3.992;2024-01-10T06:12:55;-5.30;99.90
21592;DHT22;10958;50.892;3.992;2024-01-10T06:15:21;-5.10;99.90
21592;DHT22;10958;50.892;3.992;2024-01-10T06:17:49;-5.00;99.90
21592;DHT22;10958;50.892;3.992;2024-01-10T06:20:15;-4.90;99.90
21592;DHT22;10958;50.892;3.992;2024-01-10T06:22:41;-5.00;99.90
21592;DHT22;10958;50.892;3.992;2024-01-10T06:25:07;-4.90;99.90
21592;DHT22;10958;50.892;3.992;2024-01-10T06:27:32;-4.80;99.90
21592;DHT22;10958;50.892;3.992;2024-01-10T06:29:58;-4.70;99.90
21592;DHT22;10958;50.892;3.992;2024-01-10T06:32:24;-4.60;99.90
21592;DHT22;10958;50.892;3.992;2024-01-10T06:34:51;-4.50;99.90
21592;DHT22;10958;50.892;3.992;2024-01-10T06:37:16;-4.40;99.90
21592;DHT22;10958;50.892;3.992;2024-01-10T06:39:42;-4.50;99.90
21592;DHT22;10958;50.892;3.992;2024-01-10T06:42:11;-4.50;99.90
21592;DHT22;10958;50.892;3.992;2024-01-10T06:44:40;-4.60;99.90
21592;DHT22;10958;50.892;3.992;2024-01-10T06:47:08;-4.60;99.90
21592;DHT22;10958;50.892;3.992;2024-01-10T06:49:37;-4.80;99.90
21592;DHT22;10958;50.892;3.992;2024-01-10T06:52:05;-4.80;99.90
21592;DHT22;10958;50.892;3.992;2024-01-10T06:54:34;-4.70;99.90
21592;DHT22;10958;50.892;3.992;2024-01-10T06:57:00;-4.70;99.90
21592;DHT22;10958;50.892;3.992;2024-01-10T06:59:29;-4.60;99.90
21592;DHT22;10958;50.892;3.992;2024-01-10T07:01:54;-4.80;99.90
21592;DHT22;10958;50.892;3.992;2024-01-10T07:04:27;-4.90;99.90
21592;DHT22;10958;50.892;3.992;2024-01-10T07:06:53;-4.90;99.90
21592;DHT22;10958;50.892;3.992;2024-01-10T07:09:19;-4.90;99.90
21592;DHT22;10958;50.892;3.992;2024-01-10T07:11:50;-4.90;99.90
21592;DHT22;10958;50.892;3.992;2024-01-10T07:14:16;-4.90;99.90
21592;DHT22;10958;50.892;3.992;2024-01-10T07:16:42;-4.70;99.90
21592;DHT22;10958;50.892;3.992;2024-01-10T07:19:11;-4.60;99.90
21592;DHT22;10958;50.892;3.992;2024-01-10T07:21:40;-4.70;99.90
21592;DHT22;10958;50.892;3.992;2024-01-10T07:24:06;-4.80;99.90
21592;DHT22;10958;50.892;3.992;2024-01-10T07:26:35;-4.70;99.90
21592;DHT22;10958;50.892;3.992;2024-01-10T07:29:01;-4.60;99.90
21592;DHT22;10958;50.892;3.992;2024-01-10T07:31:28;-4.50;99.90
21592;DHT22;10958;50.892;3.992;2024-01-10T07:33:55;-4.50;99.90
21592;DHT22;10958;50.892;3.992;2024-01-10T07:36:24;-4.60;99.90
21592;DHT22;10958;50.892;3.992;2024-01-10T07:38:58;-4.50;99.90
21592;DHT22;10958;50.892;3.992;2024-01-10T07:41:23;-4.50;99.90
21592;DHT22;10958;50.892;3.992;2024-01-10T07:43:50;-4.40;99.90
21592;DHT22;10958;50.892;3.992;2024-01-10T07:46:16;-4.30;99.90
21592;DHT22;10958;50.892;3.992;2024-01-10T07:48:42;-4.40;99.90
21592;DHT22;10958;50.892;3.992;2024-01-10T07:51:07;-4.30;99.90
21592;DHT22;10958;50.892;3.992;2024-01-10T07:53:33;-4.30;99.90
21592;DHT22;10958;50.892;3.992;2024-01-10T07:55:59;-4.40;99.90
21592;DHT22;10958;50.892;3.992;2024-01-10T07:58:25;-4.40;99.90
21592;DHT22;10958;50.892;3.992;2024-01-10T08:00:51;-4.40;99.90
21592;DHT22;10958;50.892;3.992;2024-01-10T08:03:17;-4.50;99.90
21592;DHT22;10958;50.892;3.992;2024-01-10T08:05:42;-4.70;99.90
21592;DHT22;10958;50.892;3.992;2024-01-10T08:08:08;-4.70;99.90
21592;DHT22;10958;50.892;3.992;2024-01-10T08:10:34;-4.50;99.90
21592;DHT22;10958;50.892;3.992;2024-01-10T08:13:00;-4.50;99.90
21592;DHT22;10958;50.892;3.992;2024-01-10T08:15:26;-4.30;99.90
21592;DHT22;10958;50.892;3.992;2024-01-10T08:17:55;-4.40;99.90
21592;DHT22;10958;50.892;3.992;2024-01-10T08:20:21;-4.40;99.90
21592;DHT22;10958;50.892;3.992;2024-01-10T08:22:47;-4.60;99.90
21592;DHT22;10958;50.892;3.992;2024-01-10T08:25:14;-4.90;99.90
21592;DHT22;10958;50.892;3.992;2024-01-10T08:27:41;-4.90;99.90
21592;DHT22;10958;50.892;3.992;2024-01-10T08:30:07;-4.60;99.90
21592;DHT22;10958;50.892;3.992;2024-01-10T08:32:37;-4.90;99.90
21592;DHT22;10958;50.892;3.992;2024-01-10T08:35:03;-4.90;99.90
21592;DHT22;10958;50.892;3.992;2024-01-10T08:37:35;-5.00;99.90
21592;DHT22;10958;50.892;3.992;2024-01-10T08:40:03;-5.00;99.90
21592;DHT22;10958;50.892;3.992;2024-01-10T08:42:33;-5.00;99.90
21592;DHT22;10958;50.892;3.992;2024-01-10T08:45:07;-5.00;99.90
21592;DHT22;10958;50.892;3.992;2024-01-10T08:47:35;-5.00;99.90
21592;DHT22;10958;50.892;3.992;2024-01-10T08:50:02;-4.90;99.90
21592;DHT22;10958;50.892;3.992;2024-01-10T08:52:32;-4.80;99.90
21592;DHT22;10958;50.892;3.992;2024-01-10T08:54:58;-4.80;99.90
21592;DHT22;10958;50.892;3.992;2024-01-10T08:57:24;-4.70;99.90
21592;DHT22;10958;50.892;3.992;2024-01-10T08:59:52;-4.50;99.90
21592;DHT22;10958;50.892;3.992;2024-01-10T09:02:18;-4.40;99.90
21592;DHT22;10958;50.892;3.992;2024-01-10T09:04:43;-4.10;99.90
21592;DHT22;10958;50.892;3.992;2024-01-10T09:07:09;-3.60;99.90
21592;DHT22;10958;50.892;3.992;2024-01-10T09:09:35;-3.30;99.90
21592;DHT22;10958;50.892;3.992;2024-01-10T09:12:00;-3.10;99.90
21592;DHT22;10958;50.892;3.992;2024-01-10T09:14:26;-2.90;99.90
21592;DHT22;10958;50.892;3.992;2024-01-10T09:16:54;-2.80;99.90
21592;DHT22;10958;50.892;3.992;2024-01-10T09:19:20;-3.00;99.90
21592;DHT22;10958;50.892;3.992;2024-01-10T09:21:46;-2.70;99.90
21592;DHT22;10958;50.892;3.992;2024-01-10T09:24:11;-2.60;99.90
21592;DHT22;10958;50.892;3.992;2024-01-10T09:26:40;-2.50;99.90
21592;DHT22;10958;50.892;3.992;2024-01-10T09:29:06;-2.80;99.90
21592;DHT22;10958;50.892;3.992;2024-01-10T09:31:32;-2.50;99.90
21592;DHT22;10958;50.892;3.992;2024-01-10T09:33:58;-2.40;99.90
21592;DHT22;10958;50.892;3.992;2024-01-10T09:36:24;-2.30;99.90
21592;DHT22;10958;50.892;3.992;2024-01-10T09:38:49;-2.20;99.90
21592;DHT22;10958;50.892;3.992;2024-01-10T09:41:18;-2.20;99.90
21592;DHT22;10958;50.892;3.992;2024-01-10T09:43:46;-2.30;99.90
21592;DHT22;10958;50.892;3.992;2024-01-10T09:46:15;-1.90;99.90
21592;DHT22;10958;50.892;3.992;2024-01-10T09:48:43;-1.90;99.90
21592;DHT22;10958;50.892;3.992;2024-01-10T09:51:09;-1.60;99.90
21592;DHT22;10958;50.892;3.992;2024-01-10T09:53:35;-1.70;99.90
21592;DHT22;10958;50.892;3.992;2024-01-10T09:56:04;-2.00;99.90
21592;DHT22;10958;50.892;3.992;2024-01-10T09:58:30;-1.90;99.90
21592;DHT22;10958;50.892;3.992;2024-01-10T10:00:57;-1.80;99.90
21592;DHT22;10958;50.892;3.992;2024-01-10T10:03:22;-2.10;99.90
21592;DHT22;10958;50.892;3.992;2024-01-10T10:05:51;-2.10;99.90
21592;DHT22;10958;50.892;3.992;2024-01-10T10:08:17;-1.90;99.90
21592;DHT22;10958;50.892;3.992;2024-01-10T10:10:49;-1.70;99.90
21592;DHT22;10958;50.892;3.992;2024-01-10T10:13:25;-1.40;99.90
21592;DHT22;10958;50.892;3.992;2024-01-10T10:16:02;-1.60;99.90
21592;DHT22;10958;50.892;3.992;2024-01-10T10:18:29;-1.70;99.90
21592;DHT22;10958;50.892;3.992;2024-01-10T10:21:13;-1.60;99.90
21592;DHT22;10958;50.892;3.992;2024-01-10T10:23:42;-1.90;99.90
21592;DHT22;10958;50.892;3.992;2024-01-10T10:26:15;-1.80;99.90
21592;DHT22;10958;50.892;3.992;2024-01-10T10:28:50;-1.80;99.90
21592;DHT22;10958;50.892;3.992;2024-01-10T10:31:18;-1.70;99.90
21592;DHT22;10958;50.892;3.992;2024-01-10T10:33:44;-1.50;99.90
21592;DHT22;10958;50.892;3.992;2024-01-10T10:36:10;-1.70;99.90
21592;DHT22;10958;50.892;3.992;2024-01-10T10:38:36;-1.90;99.90
21592;DHT22;10958;50.892;3.992;2024-01-10T10:41:05;-1.90;99.90
21592;DHT22;10958;50.892;3.992;2024-01-10T10:43:38;-2.20;99.90
21592;DHT22;10958;50.892;3.992;2024-01-10T10:46:10;-2.00;99.90
21592;DHT22;10958;50.892;3.992;2024-01-10T10:48:37;-2.00;99.90
21592;DHT22;10958;50.892;3.992;2024-01-10T10:51:04;-2.10;99.90
21592;DHT22;10958;50.892;3.992;2024-01-10T10:53:38;-2.00;99.90
21592;DHT22;10958;50.892;3.992;2024-01-10T10:56:09;-1.90;99.90
21592;DHT22;10958;50.892;3.992;2024-01-10T10:58:37;-1.90;99.90
21592;DHT22;10958;50.892;3.992;2024-01-10T11:03:40;-1.90;99.90
21592;DHT22;10958;50.892;3.992;2024-01-10T11:06:09;-2.10;99.90
21592;DHT22;10958;50.892;3.992;2024-01-10T11:08:42;-2.10;99.90
21592;DHT22;10958;50.892;3.992;2024-01-10T11:25:13;-1.60;99.90
21592;DHT22;10958;50.892;3.992;2024-01-10T11:27:39;-1.70;99.90
21592;DHT22;10958;50.892;3.992;2024-01-10T11:30:06;-1.60;99.90
21592;DHT22;10958;50.892;3.992;2024-01-10T11:32:32;-1.60;99.90
21592;DHT22;10958;50.892;3.992;2024-01-10T11:35:03;-1.50;99.90
21592;DHT22;10958;50.892;3.992;2024-01-10T11:37:43;-1.50;99.90
21592;DHT22;10958;50.892;3.992;2024-01-10T11:40:10;-1.60;99.90
21592;DHT22;10958;50.892;3.992;2024-01-10T11:42:45;-1.40;99.90
21592;DHT22;10958;50.892;3.992;2024-01-10T11:47:56;-1.30;99.90
21592;DHT22;10958;50.892;3.992;2024-01-10T11:50:23;-1.20;99.90
21592;DHT22;10958;50.892;3.992;2024-01-10T11:52:55;-1.30;99.90
21592;DHT22;10958;50.892;3.992;2024-01-10T11:55:46;-1.40;99.90
21592;DHT22;10958;50.892;3.992;2024-01-10T11:58:12;-1.40;99.90
21592;DHT22;10958;50.892;3.992;2024-01-10T12:00:39;-1.40;99.90
21592;DHT22;10958;50.892;3.992;2024-01-10T12:03:07;-1.20;99.90
21592;DHT22;10958;50.892;3.992;2024-01-10T12:05:34;-1.10;99.90
21592;DHT22;10958;50.892;3.992;2024-01-10T12:08:06;-1.00;99.90
21592;DHT22;10958;50.892;3.992;2024-01-10T12:10:31;-1.00;99.90
21592;DHT22;10958;50.892;3.992;2024-01-10T12:13:04;-1.00;99.90
21592;DHT22;10958;50.892;3.992;2024-01-10T12:15:30;-1.00;99.90
21592;DHT22;10958;50.892;3.992;2024-01-10T12:17:56;-1.10;99.90
21592;DHT22;10958;50.892;3.992;2024-01-10T12:20:24;-1.20;99.90
21592;DHT22;10958;50.892;3.992;2024-01-10T12:22:50;-1.10;99.90
21592;DHT22;10958;50.892;3.992;2024-01-10T12:25:15;-1.00;99.90
21592;DHT22;10958;50.892;3.992;2024-01-10T12:27:41;-1.00;99.90
21592;DHT22;10958;50.892;3.992;2024-01-10T12:30:07;-0.80;99.90
21592;DHT22;10958;50.892;3.992;2024-01-10T12:32:33;-0.80;99.90
21592;DHT22;10958;50.892;3.992;2024-01-10T12:35:04;-1.00;99.90
21592;DHT22;10958;50.892;3.992;2024-01-10T12:37:30;-1.00;99.90
21592;DHT22;10958;50.892;3.992;2024-01-10T12:39:56;-0.80;99.90
21592;DHT22;10958;50.892;3.992;2024-01-10T12:42:23;-0.60;99.90
21592;DHT22;10958;50.892;3.992;2024-01-10T12:44:49;-0.70;99.90
21592;DHT22;10958;50.892;3.992;2024-01-10T12:47:19;-0.70;99.90
21592;DHT22;10958;50.892;3.992;2024-01-10T12:49:45;-0.70;99.90
21592;DHT22;10958;50.892;3.992;2024-01-10T12:52:12;-0.80;99.90
21592;DHT22;10958;50.892;3.992;2024-01-10T12:54:39;-0.80;99.90
21592;DHT22;10958;50.892;3.992;2024-01-10T12:57:04;-0.60;99.90
21592;DHT22;10958;50.892;3.992;2024-01-10T12:59:30;-0.60;99.90
21592;DHT22;10958;50.892;3.992;2024-01-10T13:01:56;-0.50;99.90
21592;DHT22;10958;50.892;3.992;2024-01-10T13:04:22;-0.60;99.90
21592;DHT22;10958;50.892;3.992;2024-01-10T13:06:48;-0.60;99.90
21592;DHT22;10958;50.892;3.992;2024-01-10T13:09:14;-0.70;99.90
21592;DHT22;10958;50.892;3.992;2024-01-10T13:11:40;-0.70;99.90
21592;DHT22;10958;50.892;3.992;2024-01-10T13:14:08;-0.70;99.90
21592;DHT22;10958;50.892;3.992;2024-01-10T13:16:36;-0.80;99.90
21592;DHT22;10958;50.892;3.992;2024-01-10T13:19:01;-0.70;99.90
21592;DHT22;10958;50.892;3.992;2024-01-10T13:21:27;-0.80;99.90
21592;DHT22;10958;50.892;3.992;2024-01-10T13:23:52;-0.80;99.90
21592;DHT22;10958;50.892;3.992;2024-01-10T13:26:21;-0.70;99.90
21592;DHT22;10958;50.892;3.992;2024-01-10T13:28:46;-0.70;99.90
21592;DHT22;10958;50.892;3.992;2024-01-10T13:31:12;-0.60;99.90
21592;DHT22;10958;50.892;3.992;2024-01-10T13:33:39;-0.30;99.90
21592;DHT22;10958;50.892;3.992;2024-01-10T13:36:07;-0.40;99.90
21592;DHT22;10958;50.892;3.992;2024-01-10T13:38:33;-0.40;99.90
21592;DHT22;10958;50.892;3.992;2024-01-10T13:41:00;-0.40;99.90
21592;DHT22;10958;50.892;3.992;2024-01-10T13:43:27;-0.40;99.90
21592;DHT22;10958;50.892;3.992;2024-01-10T13:45:53;-0.40;99.90
21592;DHT22;10958;50.892;3.992;2024-01-10T13:48:19;-0.30;99.90
21592;DHT22;10958;50.892;3.992;2024-01-10T13:50:45;-0.30;99.90
21592;DHT22;10958;50.892;3.992;2024-01-10T13:53:11;-0.30;99.90
21592;DHT22;10958;50.892;3.992;2024-01-10T13:55:38;-0.40;99.90
21592;DHT22;10958;50.892;3.992;2024-01-10T13:58:04;-0.20;99.90
21592;DHT22;10958;50.892;3.992;2024-01-10T14:00:30;-0.10;99.90
21592;DHT22;10958;50.892;3.992;2024-01-10T14:02:58;-0.10;99.90
21592;DHT22;10958;50.892;3.992;2024-01-10T14:05:29;-0.30;99.90
21592;DHT22;10958;50.892;3.992;2024-01-10T14:07:56;-0.30;99.90
21592;DHT22;10958;50.892;3.992;2024-01-10T14:10:24;-0.10;99.90
21592;DHT22;10958;50.892;3.992;2024-01-10T14:12:50;0.00;99.90
21592;DHT22;10958;50.892;3.992;2024-01-10T14:15:16;-0.20;99.90
21592;DHT22;10958;50.892;3.992;2024-01-10T14:17:42;-0.20;99.90
21592;DHT22;10958;50.892;3.992;2024-01-10T14:20:08;-0.30;99.90
21592;DHT22;10958;50.892;3.992;2024-01-10T14:22:35;-0.10;99.90
21592;DHT22;10958;50.892;3.992;2024-01-10T14:25:01;-0.10;99.90
21592;DHT22;10958;50.892;3.992;2024-01-10T14:27:28;0.00;99.90
21592;DHT22;10958;50.892;3.992;2024-01-10T14:29:56;-0.10;99.90
21592;DHT22;10958;50.892;3.992;2024-01-10T14:32:22;-0.20;99.90
21592;DHT22;10958;50.892;3.992;2024-01-10T14:34:51;-0.10;99.90
21592;DHT22;10958;50.892;3.992;2024-01-10T14:37:16;-0.10;99.90
21592;DHT22;10958;50.892;3.992;2024-01-10T14:39:42;0.00;99.90
21592;DHT22;10958;50.892;3.992;2024-01-10T14:42:08;0.10;99.90
21592;DHT22;10958;50.892;3.992;2024-01-10T14:44:36;0.10;99.90
21592;DHT22;10958;50.892;3.992;2024-01-10T14:47:04;-0.30;99.90
21592;DHT22;10958;50.892;3.992;2024-01-10T14:49:32;-0.20;99.90
21592;DHT22;10958;50.892;3.992;2024-01-10T14:51:59;0.00;99.90
21592;DHT22;10958;50.892;3.992;2024-01-10T14:54:28;-0.10;99.90
21592;DHT22;10958;50.892;3.992;2024-01-10T14:56:53;-0.30;99.90
21592;DHT22;10958;50.892;3.992;2024-01-10T14:59:21;-0.20;99.90
21592;DHT22;10958;50.892;3.992;2024-01-10T15:01:47;-0.20;99.90
21592;DHT22;10958;50.892;3.992;2024-01-10T15:04:13;-0.30;99.90
21592;DHT22;10958;50.892;3.992;2024-01-10T15:06:43;-0.20;99.90
21592;DHT22;10958;50.892;3.992;2024-01-10T15:09:12;-0.40;99.90
21592;DHT22;10958;50.892;3.992;2024-01-10T15:11:39;-0.40;99.90
21592;DHT22;10958;50.892;3.992;2024-01-10T15:14:06;-0.50;99.90
21592;DHT22;10958;50.892;3.992;2024-01-10T15:16:31;-0.40;99.90
21592;DHT22;10958;50.892;3.992;2024-01-10T15:18:57;-0.40;99.90
21592;DHT22;10958;50.892;3.992;2024-01-10T15:21:22;-0.30;99.90
21592;DHT22;10958;50.892;3.992;2024-01-10T15:23:48;-0.10;99.90
21592;DHT22;10958;50.892;3.992;2024-01-10T15:26:17;-0.10;99.90
21592;DHT22;10958;50.892;3.992;2024-01-10T15:28:46;-0.30;99.90
21592;DHT22;10958;50.892;3.992;2024-01-10T15:31:22;-0.10;99.90
21592;DHT22;10958;50.892;3.992;2024-01-10T15:33:49;0.00;99.90
21592;DHT22;10958;50.892;3.992;2024-01-10T15:36:14;-0.20;99.90
21592;DHT22;10958;50.892;3.992;2024-01-10T15:38:40;-0.40;99.90
21592;DHT22;10958;50.892;3.992;2024-01-10T15:41:07;-0.50;99.90
21592;DHT22;10958;50.892;3.992;2024-01-10T15:43:36;-0.60;99.90
21592;DHT22;10958;50.892;3.992;2024-01-10T15:46:03;-0.70;99.90
21592;DHT22;10958;50.892;3.992;2024-01-10T15:48:29;-0.60;99.90